Time;durP1;ratioP1;P1;durP2;ratioP2;P2;SDS_P1;SDS_P2;PMS_P1;PMS_P2;Temp;Humidity;BMP_temperature;BMP_pressure;BME280_temperature;BME280_humidity;BME280_pressure;Samples;Min_cycle;Max_cycle;Signal;HPM_P1;HPM_P2
2023/06/29 00:01:03;;;;;;;23.05;19.52;;;18.80;99.90;;;;;;4997597;28;20041;-71
2023/06/29 00:03:33;;;;;;;29.23;22.35;;;18.70;99.90;;;;;;4997109;28;20580;-71
2023/06/29 00:05:59;;;;;;;27.38;20.98;;;18.70;99.90;;;;;;4997446;28;20093;-71
2023/06/29 00:08:26;;;;;;;22.88;17.27;;;18.80;99.90;;;;;;4997489;28;20042;-71
2023/06/29 00:10:53;;;;;;;31.92;24.55;;;18.70;99.90;;;;;;5015038;28;20048;-71
2023/06/29 00:13:19;;;;;;;22.77;18.92;;;18.70;99.90;;;;;;4997645;28;20490;-71
2023/06/29 00:15:46;;;;;;;29.00;23.58;;;18.70;99.90;;;;;;4997474;28;20069;-72
2023/06/29 00:18:13;;;;;;;27.55;22.08;;;18.70;99.90;;;;;;4997328;28;20049;-71
2023/06/29 00:20:43;;;;;;;26.52;21.52;;;18.70;99.90;;;;;;4997260;28;20042;-72
2023/06/29 00:23:09;;;;;;;25.17;20.30;;;18.70;99.90;;;;;;5014951;28;20033;-71
2023/06/29 00:25:35;;;;;;;30.80;24.25;;;18.70;99.90;;;;;;5014647;28;20401;-71
2023/06/29 00:28:01;;;;;;;30.20;23.95;;;18.70;99.90;;;;;;4997074;28;20051;-71
2023/06/29 00:30:27;;;;;;;31.75;25.08;;;18.70;99.90;;;;;;4980804;28;20042;-71
2023/06/29 00:32:53;;;;;;;25.60;20.38;;;18.60;99.90;;;;;;5014641;28;20057;-73
2023/06/29 00:35:19;;;;;;;30.95;23.15;;;18.60;99.90;;;;;;4997127;28;20088;-71
2023/06/29 00:37:44;;;;;;;30.83;24.05;;;18.60;99.90;;;;;;4996695;28;20085;-71
2023/06/29 00:40:11;;;;;;;27.05;21.63;;;18.60;99.90;;;;;;4996974;28;20133;-71
2023/06/29 00:42:37;;;;;;;26.33;21.05;;;18.60;99.90;;;;;;5014345;28;20045;-71
2023/06/29 00:45:06;;;;;;;29.30;23.55;;;18.60;99.90;;;;;;4980775;28;20482;-71
2023/06/29 00:47:33;;;;;;;27.05;21.42;;;18.60;99.90;;;;;;4996660;28;20048;-71
2023/06/29 00:50:00;;;;;;;32.25;24.90;;;18.60;99.90;;;;;;4996590;28;20057;-72
2023/06/29 00:52:27;;;;;;;28.00;22.27;;;18.60;99.90;;;;;;4980456;28;20042;-71
2023/06/29 00:54:57;;;;;;;25.45;19.70;;;18.60;99.90;;;;;;4996424;28;20132;-72
2023/06/29 00:57:24;;;;;;;28.30;21.02;;;18.60;99.90;;;;;;5014188;28;20088;-71
2023/06/29 00:59:50;;;;;;;26.77;21.88;;;18.60;99.90;;;;;;4980571;28;20042;-72
2023/06/29 01:02:16;;;;;;;33.75;25.00;;;18.60;99.90;;;;;;5013927;28;20099;-72
2023/06/29 01:04:48;;;;;;;24.30;19.13;;;18.60;99.90;;;;;;5014031;28;20041;-72
2023/06/29 01:07:24;;;;;;;28.23;21.75;;;18.50;99.90;;;;;;4996342;28;20177;-72
2023/06/29 01:09:52;;;;;;;19.40;16.42;;;18.60;99.90;;;;;;4996678;28;20052;-72
2023/06/29 01:12:19;;;;;;;27.27;21.27;;;18.60;99.90;;;;;;5013789;28;20037;-72
2023/06/29 01:14:47;;;;;;;31.65;23.95;;;18.60;99.90;;;;;;4980484;28;20490;-72
2023/06/29 01:17:15;;;;;;;24.10;19.95;;;18.60;99.90;;;;;;4996179;28;20052;-72
2023/06/29 01:19:45;;;;;;;28.52;22.90;;;18.50;99.90;;;;;;5013813;28;20509;-72
2023/06/29 01:22:19;;;;;;;23.30;17.30;;;18.50;99.90;;;;;;5014178;28;20037;-72
2023/06/29 01:24:45;;;;;;;23.48;18.13;;;18.50;99.90;;;;;;4996032;28;20041;-72
2023/06/29 01:27:12;;;;;;;20.27;15.75;;;18.50;99.90;;;;;;5013948;28;20181;-72
2023/06/29 01:29:38;;;;;;;23.02;16.45;;;18.50;99.90;;;;;;4980109;28;20437;-71
2023/06/29 01:32:07;;;;;;;25.23;20.70;;;18.50;99.90;;;;;;5013518;28;20082;-71
2023/06/29 01:34:37;;;;;;;25.33;20.98;;;18.50;99.90;;;;;;5013771;28;20091;-71
2023/06/29 01:37:17;;;;;;;23.00;16.95;;;18.50;99.90;;;;;;5013468;28;20490;-71
2023/06/29 01:39:51;;;;;;;29.85;24.98;;;18.50;99.90;;;;;;5013748;28;20088;-71
2023/06/29 01:42:17;;;;;;;26.95;21.60;;;18.50;99.90;;;;;;5013685;28;20506;-71
2023/06/29 01:44:43;;;;;;;27.77;21.60;;;18.50;99.90;;;;;;5013349;28;20037;-72
2023/06/29 01:47:10;;;;;;;22.52;18.48;;;18.50;99.90;;;;;;5013399;28;20038;-71
2023/06/29 01:49:36;;;;;;;23.58;20.48;;;18.50;99.90;;;;;;4995780;28;20052;-72
2023/06/29 01:52:04;;;;;;;27.92;21.77;;;18.50;99.90;;;;;;4995699;28;20038;-71
2023/06/29 01:54:30;;;;;;;29.35;23.40;;;18.50;99.90;;;;;;4995655;28;20046;-72
2023/06/29 01:56:56;;;;;;;24.67;20.05;;;18.50;99.90;;;;;;5013492;28;20041;-71
2023/06/29 01:59:22;;;;;;;24.88;20.50;;;18.40;99.90;;;;;;5013513;28;20053;-71
2023/06/29 02:01:47;;;;;;;25.65;20.85;;;18.40;99.90;;;;;;5013200;28;20423;-71
2023/06/29 02:04:13;;;;;;;26.15;19.58;;;18.40;99.90;;;;;;4995552;28;20042;-71
2023/06/29 02:06:39;;;;;;;28.73;21.45;;;18.40;99.90;;;;;;4995678;28;20092;-71
2023/06/29 02:09:05;;;;;;;32.38;22.25;;;18.40;99.90;;;;;;4995773;28;20042;-71
2023/06/29 02:11:30;;;;;;;24.65;21.48;;;18.40;99.90;;;;;;4995564;28;20100;-71
2023/06/29 02:13:56;;;;;;;26.15;19.77;;;18.40;99.90;;;;;;4995732;28;20473;-72
2023/06/29 02:16:22;;;;;;;26.65;20.33;;;18.40;99.90;;;;;;5013339;28;20117;-71
2023/06/29 02:18:47;;;;;;;26.92;19.80;;;18.40;99.90;;;;;;4995454;28;20054;-71
2023/06/29 02:21:13;;;;;;;23.30;18.20;;;18.40;99.90;;;;;;5013250;28;20041;-72
2023/06/29 02:23:39;;;;;;;25.20;19.02;;;18.40;99.90;;;;;;5013048;28;20490;-71
2023/06/29 02:26:05;;;;;;;23.70;17.55;;;18.40;99.90;;;;;;4996793;28;20104;-72
2023/06/29 02:28:30;;;;;;;28.17;22.05;;;18.30;99.90;;;;;;4999429;28;20471;-71
2023/06/29 02:30:56;;;;;;;19.05;15.32;;;18.40;99.90;;;;;;5016899;28;20042;-72
2023/06/29 02:33:22;;;;;;;20.00;15.57;;;18.40;99.90;;;;;;4999544;28;20536;-72
2023/06/29 02:35:47;;;;;;;22.05;16.27;;;18.30;99.90;;;;;;4999056;28;20046;-72
2023/06/29 02:38:13;;;;;;;25.35;20.38;;;18.40;99.90;;;;;;4999188;28;20105;-71
2023/06/29 02:40:39;;;;;;;28.27;22.35;;;18.40;99.90;;;;;;4999118;28;20049;-72
2023/06/29 02:43:05;;;;;;;26.27;20.73;;;18.30;99.90;;;;;;4999430;28;20474;-71
2023/06/29 02:45:31;;;;;;;29.52;21.92;;;18.40;99.90;;;;;;4999144;28;20053;-72
2023/06/29 02:47:57;;;;;;;28.65;22.33;;;18.40;99.90;;;;;;4998998;28;20046;-72
2023/06/29 02:50:22;;;;;;;25.58;19.40;;;18.40;99.90;;;;;;5016491;28;20046;-72
2023/06/29 02:52:48;;;;;;;25.98;21.55;;;18.30;99.90;;;;;;4982690;28;20099;-71
2023/06/29 02:55:14;;;;;;;27.80;21.63;;;18.30;99.90;;;;;;4999007;28;20089;-71
2023/06/29 02:57:40;;;;;;;27.98;22.52;;;18.30;99.90;;;;;;5016314;28;20078;-71
2023/06/29 03:00:07;;;;;;;25.20;19.77;;;18.30;99.90;;;;;;5016539;28;20096;-72
2023/06/29 03:02:33;;;;;;;25.45;18.20;;;18.30;99.90;;;;;;4998979;28;20041;-72
2023/06/29 03:04:59;;;;;;;27.60;21.20;;;18.30;99.90;;;;;;5016256;28;20049;-72
2023/06/29 03:07:24;;;;;;;28.95;22.88;;;18.30;99.90;;;;;;4998798;28;20402;-72
2023/06/29 03:09:50;;;;;;;31.42;23.15;;;18.30;99.90;;;;;;4982543;28;20037;-71
2023/06/29 03:12:16;;;;;;;22.00;16.90;;;18.30;99.90;;;;;;4998421;28;20048;-72
2023/06/29 03:14:41;;;;;;;26.33;20.52;;;18.30;99.90;;;;;;5016332;28;20584;-72
2023/06/29 03:17:08;;;;;;;30.52;22.85;;;18.30;99.90;;;;;;4998572;28;20038;-71
2023/06/29 03:19:34;;;;;;;29.35;23.92;;;18.30;99.90;;;;;;4982357;28;20100;-72
2023/06/29 03:21:59;;;;;;;30.83;24.80;;;18.30;99.90;;;;;;4998317;28;20041;-72
2023/06/29 03:24:25;;;;;;;25.25;19.40;;;18.30;99.90;;;;;;4998188;28;20445;-72
2023/06/29 03:26:51;;;;;;;23.52;19.45;;;18.30;99.90;;;;;;4998527;28;20478;-71
2023/06/29 03:29:16;;;;;;;27.00;22.77;;;18.30;99.90;;;;;;5015907;28;20053;-71
2023/06/29 03:31:42;;;;;;;30.30;23.27;;;18.30;99.90;;;;;;5015706;28;20100;-71
2023/06/29 03:34:08;;;;;;;30.10;23.48;;;18.40;99.90;;;;;;4982142;28;20371;-71
2023/06/29 03:36:34;;;;;;;32.15;26.02;;;18.30;99.90;;;;;;4965755;28;20092;-71
2023/06/29 03:38:59;;;;;;;28.58;23.55;;;18.30;99.90;;;;;;5014274;28;20124;-71
2023/06/29 03:41:25;;;;;;;32.28;25.42;;;18.40;99.90;;;;;;5015566;28;20053;-71
2023/06/29 03:43:51;;;;;;;33.70;26.20;;;18.30;99.90;;;;;;5015768;28;20080;-71
2023/06/29 03:46:17;;;;;;;31.58;24.33;;;18.40;99.90;;;;;;5015494;28;20061;-72
2023/06/29 03:48:42;;;;;;;31.10;25.15;;;18.40;99.90;;;;;;4997719;28;20077;-72
2023/06/29 03:51:08;;;;;;;32.55;27.17;;;18.40;99.90;;;;;;4997785;28;20093;-71
2023/06/29 03:53:34;;;;;;;31.98;25.48;;;18.40;99.90;;;;;;4997992;28;20056;-72
2023/06/29 03:56:00;;;;;;;28.35;24.48;;;18.40;99.90;;;;;;4997538;28;20137;-72
2023/06/29 03:58:25;;;;;;;34.58;28.38;;;18.40;99.90;;;;;;4997619;28;20049;-72
2023/06/29 04:00:51;;;;;;;28.83;21.83;;;18.40;99.90;;;;;;4997580;28;20077;-71
2023/06/29 04:03:17;;;;;;;35.17;26.35;;;18.50;99.90;;;;;;4997610;28;20506;-71
2023/06/29 04:05:43;;;;;;;31.95;25.88;;;18.50;99.90;;;;;;4997496;28;20046;-71
2023/06/29 04:08:08;;;;;;;30.00;25.17;;;18.50;99.90;;;;;;4997449;28;20128;-71
2023/06/29 04:10:34;;;;;;;34.55;26.65;;;18.50;99.90;;;;;;4997566;28;20593;-72
2023/06/29 04:13:01;;;;;;;30.20;25.75;;;18.60;99.90;;;;;;5014965;28;20437;-72
2023/06/29 04:15:27;;;;;;;33.17;25.98;;;18.50;99.90;;;;;;4997384;28;20033;-71
2023/06/29 04:17:56;;;;;;;33.42;26.92;;;18.60;99.90;;;;;;5014830;28;20092;-71
2023/06/29 04:20:21;;;;;;;31.27;26.77;;;18.60;99.90;;;;;;5014988;28;20390;-71
2023/06/29 04:22:47;;;;;;;33.20;27.35;;;18.60;99.90;;;;;;4997464;28;20069;-73
2023/06/29 04:25:13;;;;;;;31.92;25.70;;;18.60;99.90;;;;;;5015042;28;20042;-72
2023/06/29 04:27:39;;;;;;;32.60;25.77;;;18.60;99.90;;;;;;5014508;28;20113;-72
2023/06/29 04:30:05;;;;;;;34.53;27.58;;;18.60;99.90;;;;;;4997301;28;20050;-72
2023/06/29 04:32:31;;;;;;;36.15;27.58;;;18.70;99.90;;;;;;5014815;28;20444;-72
2023/06/29 04:34:57;;;;;;;34.75;27.80;;;18.70;99.90;;;;;;4996957;28;20048;-71
2023/06/29 04:37:22;;;;;;;31.05;27.02;;;18.70;99.90;;;;;;4996991;28;20502;-72
2023/06/29 04:39:48;;;;;;;32.45;26.73;;;18.70;99.90;;;;;;5014563;28;20471;-72
2023/06/29 04:42:17;;;;;;;33.85;28.20;;;18.70;99.90;;;;;;5014633;28;20060;-72
2023/06/29 04:44:44;;;;;;;32.55;25.92;;;18.70;99.90;;;;;;4996822;28;20045;-72
2023/06/29 04:47:10;;;;;;;34.65;27.50;;;18.80;99.90;;;;;;4996734;28;20089;-72
2023/06/29 04:49:41;;;;;;;35.83;27.88;;;18.80;99.90;;;;;;4996379;28;20051;-72
2023/06/29 04:52:10;;;;;;;33.50;28.35;;;18.80;99.90;;;;;;5014255;28;20048;-71
2023/06/29 04:54:36;;;;;;;34.58;28.17;;;18.80;99.90;;;;;;5014057;28;20033;-72
2023/06/29 04:57:01;;;;;;;38.78;28.88;;;18.80;99.90;;;;;;4996494;28;20100;-72
2023/06/29 04:59:31;;;;;;;34.75;28.13;;;18.90;99.90;;;;;;5014342;28;20041;-72
2023/06/29 05:01:56;;;;;;;31.50;26.58;;;18.90;99.90;;;;;;5014204;28;20044;-72
2023/06/29 05:04:22;;;;;;;34.47;29.15;;;19.00;99.90;;;;;;4996441;28;20042;-72
2023/06/29 05:06:48;;;;;;;35.10;27.55;;;19.10;99.90;;;;;;4996373;28;20120;-72
2023/06/29 05:09:15;;;;;;;33.70;27.08;;;19.10;99.90;;;;;;4996381;28;20037;-72
2023/06/29 05:11:41;;;;;;;32.13;26.52;;;19.20;99.90;;;;;;4980554;28;20482;-72
2023/06/29 05:14:07;;;;;;;33.47;27.88;;;19.20;99.90;;;;;;4996250;28;20065;-71
2023/06/29 05:16:33;;;;;;;36.95;28.88;;;19.30;99.90;;;;;;4979992;28;20038;-72
2023/06/29 05:18:58;;;;;;;34.75;28.45;;;19.40;99.90;;;;;;5013751;28;20045;-71
2023/06/29 05:21:26;;;;;;;34.75;28.98;;;19.50;99.90;;;;;;4996081;28;20042;-72
2023/06/29 05:23:52;;;;;;;34.65;28.73;;;19.50;99.90;;;;;;4996105;28;20073;-72
2023/06/29 05:26:18;;;;;;;34.97;28.52;;;19.60;99.90;;;;;;5013627;28;20088;-71
2023/06/29 05:28:44;;;;;;;34.92;29.33;;;19.80;99.90;;;;;;5013869;28;20050;-71
2023/06/29 05:31:09;;;;;;;37.22;29.85;;;19.90;99.90;;;;;;5013767;28;20046;-72
2023/06/29 05:33:35;;;;;;;35.55;29.25;;;20.00;99.90;;;;;;5013828;28;20081;-72
2023/06/29 05:36:02;;;;;;;35.95;29.23;;;20.10;99.90;;;;;;5013705;28;20038;-71
2023/06/29 05:38:29;;;;;;;35.88;28.33;;;20.20;99.90;;;;;;4995956;28;20054;-71
2023/06/29 05:40:55;;;;;;;35.38;29.40;;;20.20;99.90;;;;;;4996178;28;20037;-71
2023/06/29 05:43:24;;;;;;;36.38;28.73;;;20.30;99.90;;;;;;4996103;28;20120;-71
2023/06/29 05:45:50;;;;;;;34.33;29.05;;;20.30;99.90;;;;;;4995845;28;20046;-71
2023/06/29 05:48:16;;;;;;;35.45;28.63;;;20.40;99.90;;;;;;4995637;28;20050;-71
2023/06/29 05:50:41;;;;;;;36.42;30.08;;;20.50;99.90;;;;;;4995675;28;20130;-71
2023/06/29 05:53:07;;;;;;;36.47;29.92;;;20.60;99.90;;;;;;4995911;28;20057;-71
2023/06/29 05:55:33;;;;;;;35.40;30.02;;;20.70;99.90;;;;;;4995996;28;20042;-71
2023/06/29 05:57:59;;;;;;;35.85;28.85;;;20.80;99.90;;;;;;4979710;28;20117;-71
2023/06/29 06:00:25;;;;;;;33.75;28.85;;;20.90;99.90;;;;;;5012541;28;20057;-72
2023/06/29 06:02:51;;;;;;;34.53;29.10;;;20.90;99.90;;;;;;4980109;28;20502;-71
2023/06/29 06:05:17;;;;;;;32.97;27.48;;;21.00;99.90;;;;;;5013041;28;20118;-72
2023/06/29 06:07:42;;;;;;;36.53;28.85;;;21.10;99.90;;;;;;5013112;28;20041;-71
2023/06/29 06:10:08;;;;;;;35.70;28.50;;;21.20;99.90;;;;;;5013159;28;20060;-72
2023/06/29 06:12:34;;;;;;;34.78;28.63;;;21.30;99.90;;;;;;5013045;28;20038;-71
2023/06/29 06:15:00;;;;;;;31.55;28.15;;;21.30;99.90;;;;;;5013122;28;20045;-71
2023/06/29 06:17:25;;;;;;;33.45;28.27;;;21.40;99.90;;;;;;5013366;28;20064;-72
2023/06/29 06:19:52;;;;;;;36.35;28.55;;;21.50;99.90;;;;;;4995700;28;20050;-72
2023/06/29 06:22:18;;;;;;;32.95;28.42;;;21.60;99.90;;;;;;4995638;28;20088;-72
2023/06/29 06:24:44;;;;;;;35.35;28.17;;;21.70;99.90;;;;;;4979282;28;20045;-72
2023/06/29 06:27:10;;;;;;;33.78;29.25;;;21.80;99.90;;;;;;4995680;28;20068;-72
2023/06/29 06:29:35;;;;;;;32.97;28.13;;;21.80;99.90;;;;;;5013286;28;20121;-73
2023/06/29 06:32:01;;;;;;;32.72;27.92;;;21.90;99.90;;;;;;4995364;28;20046;-72
2023/06/29 06:34:30;;;;;;;31.60;27.48;;;22.00;99.90;;;;;;4995365;28;20141;-72
2023/06/29 06:36:57;;;;;;;33.00;27.98;;;21.90;99.90;;;;;;4995063;28;20053;-72
2023/06/29 06:39:23;;;;;;;35.95;28.17;;;21.90;99.90;;;;;;5012886;28;20054;-72
2023/06/29 06:41:49;;;;;;;34.05;28.08;;;21.90;99.90;;;;;;5012810;28;20452;-72
2023/06/29 06:44:15;;;;;;;35.42;29.90;;;21.90;99.90;;;;;;4995350;28;20049;-72
2023/06/29 06:46:41;;;;;;;38.10;29.63;;;21.80;99.90;;;;;;5013160;28;20390;-72
2023/06/29 06:49:07;;;;;;;35.17;29.83;;;21.80;99.90;;;;;;5012794;28;20140;-72
2023/06/29 06:51:32;;;;;;;36.13;31.10;;;21.80;99.90;;;;;;4995381;28;20169;-72
2023/06/29 06:53:58;;;;;;;36.95;30.90;;;21.80;99.90;;;;;;5012724;28;20398;-72
2023/06/29 06:56:24;;;;;;;37.63;31.42;;;21.70;99.90;;;;;;4979075;28;20124;-72
2023/06/29 06:58:50;;;;;;;36.92;32.50;;;21.80;99.90;;;;;;4995168;28;20045;-72
2023/06/29 07:01:17;;;;;;;38.28;31.75;;;21.90;99.90;;;;;;4995372;28;20042;-72
2023/06/29 07:03:43;;;;;;;37.97;31.98;;;21.90;99.90;;;;;;5012923;28;20030;-72
2023/06/29 07:06:08;;;;;;;36.35;30.42;;;21.90;99.90;;;;;;5012596;28;20061;-72
2023/06/29 07:08:35;;;;;;;39.03;31.27;;;21.90;99.90;;;;;;5012422;28;20100;-72
2023/06/29 07:11:01;;;;;;;37.55;32.55;;;22.00;99.90;;;;;;5012854;28;20100;-72
2023/06/29 07:13:27;;;;;;;40.08;31.80;;;22.10;99.90;;;;;;5015840;28;20056;-72
2023/06/29 07:15:53;;;;;;;36.25;32.03;;;22.10;99.90;;;;;;5015981;28;20389;-72
2023/06/29 07:18:20;;;;;;;39.72;32.38;;;22.10;99.90;;;;;;5016063;28;20060;-72
2023/06/29 07:20:46;;;;;;;36.03;30.17;;;22.10;99.90;;;;;;5016138;28;20133;-72
2023/06/29 07:23:11;;;;;;;36.60;30.48;;;22.00;99.90;;;;;;5016198;28;20105;-72
2023/06/29 07:25:37;;;;;;;36.33;29.02;;;21.90;99.90;;;;;;5015935;28;20125;-71
2023/06/29 07:28:03;;;;;;;35.20;29.25;;;21.90;99.90;;;;;;4998490;28;20402;-71
2023/06/29 07:30:29;;;;;;;39.15;31.15;;;21.90;99.90;;;;;;4998247;28;20053;-72
2023/06/29 07:32:54;;;;;;;35.30;30.48;;;21.80;99.90;;;;;;4998441;28;20096;-71
2023/06/29 07:35:20;;;;;;;38.47;31.65;;;21.90;99.90;;;;;;4997989;28;20045;-71
2023/06/29 07:37:46;;;;;;;35.53;30.05;;;21.90;99.90;;;;;;5015374;28;20413;-72
2023/06/29 07:40:12;;;;;;;33.38;28.50;;;22.10;99.90;;;;;;4982153;28;20041;-72
2023/06/29 07:42:38;;;;;;;36.42;29.77;;;22.20;99.90;;;;;;5015818;28;20045;-72
2023/06/29 07:45:05;;;;;;;36.35;30.42;;;22.20;99.90;;;;;;4965365;28;20046;-71
2023/06/29 07:47:31;;;;;;;35.80;29.63;;;22.30;99.90;;;;;;4978685;28;20121;-72
2023/06/29 07:49:56;;;;;;;33.60;28.52;;;22.40;99.90;;;;;;4978665;28;20181;-72
2023/06/29 07:52:24;;;;;;;35.55;28.85;;;22.50;99.90;;;;;;4978600;28;20395;-72
2023/06/29 07:54:50;;;;;;;33.67;27.95;;;22.60;99.90;;;;;;4995990;28;20038;-72
2023/06/29 07:57:16;;;;;;;32.47;28.23;;;22.60;99.90;;;;;;4978182;28;20045;-72
2023/06/29 07:59:42;;;;;;;35.50;28.58;;;22.70;99.90;;;;;;4978252;28;20044;-72
2023/06/29 08:02:08;;;;;;;35.10;27.38;;;22.70;99.90;;;;;;4978260;28;20101;-72
2023/06/29 08:04:33;;;;;;;37.55;27.17;;;22.80;99.90;;;;;;4995754;28;20034;-72
2023/06/29 08:06:59;;;;;;;33.22;27.45;;;22.90;99.90;;;;;;4995768;28;20533;-72
2023/06/29 08:09:25;;;;;;;34.33;27.40;;;22.90;99.90;;;;;;4995724;28;20038;-71
2023/06/29 08:11:51;;;;;;;32.30;27.30;;;23.00;99.90;;;;;;4961872;28;20117;-72
2023/06/29 08:14:16;;;;;;;38.70;28.95;;;23.10;99.90;;;;;;4995731;28;20398;-72
2023/06/29 08:16:42;;;;;;;33.60;26.77;;;23.20;99.90;;;;;;4977857;28;20403;-72
2023/06/29 08:19:08;;;;;;;34.42;27.05;;;23.40;99.90;;;;;;4977746;28;20038;-72
2023/06/29 08:21:33;;;;;;;32.45;27.15;;;23.60;99.90;;;;;;4995349;28;20089;-72
2023/06/29 08:23:59;;;;;;;31.52;26.83;;;23.70;99.90;;;;;;4994768;28;20047;-72
2023/06/29 08:26:25;;;;;;;30.25;26.67;;;23.70;99.90;;;;;;4977940;28;20399;-72
2023/06/29 08:28:51;;;;;;;33.45;27.95;;;23.70;99.90;;;;;;4961615;28;20057;-72
2023/06/29 08:31:19;;;;;;;32.28;27.33;;;23.60;99.90;;;;;;4995051;28;20046;-72
2023/06/29 08:33:45;;;;;;;32.67;27.55;;;23.50;99.90;;;;;;4994888;28;20053;-72
2023/06/29 08:36:11;;;;;;;34.00;28.90;;;23.50;99.90;;;;;;4994841;28;20057;-72
2023/06/29 08:38:37;;;;;;;33.50;27.38;;;23.50;99.90;;;;;;4977359;28;20121;-72
2023/06/29 08:41:05;;;;;;;35.08;28.48;;;23.40;99.90;;;;;;4977421;28;20054;-72
2023/06/29 08:43:31;;;;;;;34.28;27.52;;;23.50;99.90;;;;;;4995160;28;20542;-72
2023/06/29 08:45:56;;;;;;;32.22;26.95;;;23.60;99.90;;;;;;4977421;28;20082;-72
2023/06/29 08:48:23;;;;;;;32.63;27.80;;;23.60;99.90;;;;;;4994587;28;20414;-72
2023/06/29 08:51:02;;;;;;;32.00;27.00;;;23.70;99.90;;;;;;4994931;28;20093;-72
2023/06/29 08:53:28;;;;;;;30.77;27.38;;;23.70;99.90;;;;;;4994902;28;20479;-72
2023/06/29 08:55:54;;;;;;;32.13;28.20;;;23.70;99.90;;;;;;4994697;28;20077;-72
2023/06/29 08:58:21;;;;;;;31.98;26.58;;;23.60;99.90;;;;;;4977144;28;20062;-72
2023/06/29 09:00:47;;;;;;;34.15;26.08;;;23.60;99.90;;;;;;4994732;28;20034;-72
2023/06/29 09:03:14;;;;;;;31.45;25.77;;;23.60;99.90;;;;;;4977412;28;20546;-72
2023/06/29 09:05:39;;;;;;;31.42;25.65;;;23.50;99.90;;;;;;4977206;28;20537;-72
2023/06/29 09:08:06;;;;;;;29.85;23.75;;;23.50;99.90;;;;;;4994425;28;20038;-72
2023/06/29 09:10:32;;;;;;;32.17;25.70;;;23.70;99.90;;;;;;4994253;28;20072;-72
2023/06/29 09:12:57;;;;;;;31.35;24.33;;;23.80;99.90;;;;;;4960993;28;20121;-72
2023/06/29 09:15:25;;;;;;;30.35;24.58;;;24.00;99.90;;;;;;4976986;28;20124;-72
2023/06/29 09:17:55;;;;;;;29.77;24.10;;;24.10;99.90;;;;;;4994477;28;20475;-72
2023/06/29 09:20:21;;;;;;;26.08;21.67;;;24.20;99.90;;;;;;4994204;28;20037;-72
2023/06/29 09:22:51;;;;;;;28.40;22.35;;;24.30;99.90;;;;;;4960843;28;20042;-72
2023/06/29 09:25:18;;;;;;;26.10;21.80;;;24.40;99.90;;;;;;4976942;28;20050;-72
2023/06/29 09:27:44;;;;;;;26.73;21.58;;;24.50;99.90;;;;;;4994117;28;20034;-72
2023/06/29 09:30:17;;;;;;;27.33;21.83;;;24.60;99.90;;;;;;4994062;28;20410;-72
2023/06/29 09:32:43;;;;;;;28.73;23.20;;;24.80;99.90;;;;;;4994302;28;20042;-72
2023/06/29 09:35:09;;;;;;;27.15;22.75;;;24.90;99.90;;;;;;4975804;28;20054;-72
2023/06/29 09:37:36;;;;;;;30.27;24.35;;;24.90;99.90;;;;;;4993755;28;20133;-72
2023/06/29 09:40:12;;;;;;;31.30;23.48;;;24.90;99.90;;;;;;4993848;28;20046;-72
2023/06/29 09:42:39;;;;;;;28.55;23.70;;;24.90;99.90;;;;;;4976425;28;20046;-72
2023/06/29 09:45:13;;;;;;;28.27;24.17;;;24.80;99.90;;;;;;4976592;28;20045;-72
2023/06/29 09:47:41;;;;;;;27.52;23.60;;;24.70;99.90;;;;;;4976340;28;20117;-72
2023/06/29 09:50:27;;;;;;;26.45;22.05;;;24.70;99.90;;;;;;4976386;28;20060;-72
2023/06/29 09:52:54;;;;;;;26.63;21.63;;;24.70;99.90;;;;;;4993345;28;20432;-72
2023/06/29 09:55:28;;;;;;;28.05;22.60;;;24.70;99.90;;;;;;4976468;28;20050;-72
2023/06/29 09:57:56;;;;;;;27.50;22.42;;;24.70;99.90;;;;;;4993688;28;20040;-72
2023/06/29 10:00:22;;;;;;;28.85;22.58;;;24.60;99.90;;;;;;4993949;28;20118;-72
2023/06/29 10:02:47;;;;;;;29.25;24.02;;;24.60;99.90;;;;;;4993661;28;20073;-72
2023/06/29 10:05:13;;;;;;;28.38;22.98;;;24.60;99.90;;;;;;4993828;28;20030;-72
2023/06/29 10:07:41;;;;;;;29.30;24.27;;;24.60;99.90;;;;;;4993829;28;20113;-72
2023/06/29 10:10:10;;;;;;;27.25;23.42;;;24.50;99.90;;;;;;4993522;28;20045;-72
2023/06/29 10:12:36;;;;;;;26.70;22.42;;;24.40;99.90;;;;;;4976136;28;20046;-72
2023/06/29 10:15:08;;;;;;;25.95;22.73;;;24.30;99.90;;;;;;4975750;28;20091;-72
2023/06/29 10:17:55;;;;;;;27.60;22.88;;;24.10;99.90;;;;;;4976590;28;20470;-72
2023/06/29 10:20:25;;;;;;;29.98;23.65;;;23.90;99.90;;;;;;4976062;28;20054;-71
2023/06/29 10:22:52;;;;;;;26.48;22.88;;;23.80;99.90;;;;;;4975965;28;20076;-72
2023/06/29 10:25:20;;;;;;;26.63;22.30;;;23.70;99.90;;;;;;4976279;28;20047;-71
2023/06/29 10:27:48;;;;;;;28.98;22.90;;;23.50;99.90;;;;;;4993273;28;20046;-71
2023/06/29 10:30:21;;;;;;;29.17;22.88;;;23.40;99.90;;;;;;4976204;28;20181;-71
2023/06/29 10:32:51;;;;;;;27.55;23.67;;;23.40;99.90;;;;;;4960485;28;20121;-71
2023/06/29 10:35:17;;;;;;;30.17;23.42;;;23.30;99.90;;;;;;4975807;28;20038;-71
2023/06/29 10:37:49;;;;;;;28.23;24.58;;;23.20;99.90;;;;;;4993238;28;20058;-71
2023/06/29 10:40:17;;;;;;;29.55;24.40;;;23.20;99.90;;;;;;4975869;28;20043;-71
2023/06/29 10:42:43;;;;;;;28.80;23.50;;;23.10;99.90;;;;;;4993574;28;20391;-71
2023/06/29 10:45:17;;;;;;;28.95;23.77;;;23.10;99.90;;;;;;4959991;28;20042;-71
2023/06/29 10:47:45;;;;;;;27.40;23.70;;;23.00;99.90;;;;;;4977966;28;20491;-72
2023/06/29 10:50:11;;;;;;;27.67;23.10;;;23.00;99.90;;;;;;4996981;28;20061;-72
2023/06/29 10:52:42;;;;;;;28.33;23.27;;;22.90;99.90;;;;;;4997160;28;20042;-71
2023/06/29 10:55:18;;;;;;;27.98;23.00;;;22.90;99.90;;;;;;4997131;28;20069;-71
2023/06/29 10:57:46;;;;;;;27.92;24.08;;;22.90;99.90;;;;;;4996787;28;20189;-71
2023/06/29 11:00:13;;;;;;;28.77;24.95;;;22.90;99.90;;;;;;4996742;28;20089;-72
2023/06/29 11:02:40;;;;;;;30.25;26.10;;;22.80;99.90;;;;;;4996663;28;20046;-72
2023/06/29 11:05:06;;;;;;;30.80;24.55;;;22.80;99.90;;;;;;4996685;28;20046;-71
2023/06/29 11:07:33;;;;;;;29.65;25.55;;;22.70;99.90;;;;;;4979189;28;20050;-72
2023/06/29 11:10:00;;;;;;;30.05;25.73;;;22.70;99.90;;;;;;4996703;28;20046;-72
2023/06/29 11:12:26;;;;;;;30.90;26.45;;;22.70;99.90;;;;;;4996605;28;20034;-72
2023/06/29 11:14:51;;;;;;;31.58;26.95;;;22.60;99.90;;;;;;4996493;28;20089;-72
2023/06/29 11:17:20;;;;;;;28.98;25.38;;;22.60;99.90;;;;;;4996593;28;20073;-72
2023/06/29 11:19:48;;;;;;;32.45;25.67;;;22.60;99.90;;;;;;4979004;28;20042;-71
2023/06/29 11:22:14;;;;;;;31.75;26.65;;;22.50;99.90;;;;;;4979185;28;20039;-72
2023/06/29 11:24:42;;;;;;;35.78;28.20;;;22.60;99.90;;;;;;4996636;28;20081;-71
2023/06/29 11:27:07;;;;;;;33.88;28.98;;;22.60;99.90;;;;;;4979234;28;20494;-71
2023/06/29 11:29:33;;;;;;;33.53;29.08;;;22.70;99.90;;;;;;4978457;28;20096;-72
2023/06/29 11:32:02;;;;;;;33.63;28.08;;;22.70;99.90;;;;;;4978354;28;20069;-72
2023/06/29 11:34:28;;;;;;;32.63;28.30;;;22.90;99.90;;;;;;4978253;28;20406;-72
2023/06/29 11:36:55;;;;;;;35.30;29.13;;;23.10;99.90;;;;;;4978070;28;20046;-71
2023/06/29 11:39:21;;;;;;;32.80;28.05;;;23.30;99.90;;;;;;4978606;28;20058;-72
2023/06/29 11:41:47;;;;;;;33.13;28.17;;;23.60;99.90;;;;;;4962381;28;20046;-72
2023/06/29 11:44:13;;;;;;;33.97;28.95;;;23.80;99.90;;;;;;4978096;28;20046;-72
2023/06/29 11:46:39;;;;;;;33.65;29.15;;;24.00;99.90;;;;;;4978190;28;20042;-72
2023/06/29 11:49:05;;;;;;;35.05;29.75;;;24.00;99.90;;;;;;4978980;28;20383;-72
2023/06/29 11:51:33;;;;;;;34.45;29.92;;;24.10;99.90;;;;;;4995768;28;20046;-72
2023/06/29 11:53:59;;;;;;;36.45;29.63;;;24.10;99.90;;;;;;4995797;28;20066;-72
2023/06/29 11:56:37;;;;;;;34.85;29.23;;;24.30;99.90;;;;;;4995722;28;20038;-71
2023/06/29 11:59:12;;;;;;;30.40;26.92;;;24.40;99.90;;;;;;4994940;28;20045;-72
2023/06/29 12:01:39;;;;;;;33.00;28.30;;;24.60;99.90;;;;;;4995940;28;20034;-72
2023/06/29 12:04:05;;;;;;;34.28;29.08;;;24.70;99.90;;;;;;4995954;28;20089;-72
2023/06/29 12:06:48;;;;;;;32.78;27.60;;;24.80;99.90;;;;;;4995870;28;20128;-72
2023/06/29 12:09:14;;;;;;;30.17;25.38;;;25.00;99.90;;;;;;4978335;28;20391;-72
2023/06/29 12:11:39;;;;;;;28.42;24.17;;;25.20;99.90;;;;;;4995478;28;20041;-72
2023/06/29 12:14:09;;;;;;;29.50;23.50;;;25.40;99.90;;;;;;4995631;28;20038;-72
2023/06/29 12:16:41;;;;;;;25.83;22.77;;;25.50;99.90;;;;;;4977979;28;20045;-72
2023/06/29 12:19:11;;;;;;;29.35;25.17;;;25.60;99.90;;;;;;4977715;28;20046;-72
2023/06/29 12:21:37;;;;;;;28.48;24.85;;;25.80;99.90;;;;;;4977846;28;20104;-72
2023/06/29 12:24:04;;;;;;;26.98;22.77;;;26.00;99.90;;;;;;4977700;28;20050;-72
2023/06/29 12:26:30;;;;;;;28.52;22.60;;;26.30;99.90;;;;;;4995487;28;20458;-72